createdAt,value
2023-02-14T00:00:55.301Z,24.02
2023-02-14T00:03:23.122Z,21.35
2023-02-14T00:05:50.860Z,21.25
2023-02-14T00:08:18.533Z,23.70
2023-02-14T00:10:46.262Z,22.48
2023-02-14T00:13:14.012Z,24.42
2023-02-14T00:15:42.146Z,24.30
2023-02-14T00:18:09.877Z,21.20
2023-02-14T00:20:37.587Z,21.70
2023-02-14T00:23:05.303Z,25.75
2023-02-14T00:25:34.859Z,24.20
2023-02-14T00:28:02.584Z,25.25
2023-02-14T00:30:30.567Z,23.88
2023-02-14T00:32:59.814Z,22.73
2023-02-14T00:35:27.509Z,24.75
2023-02-14T00:37:56.900Z,23.38
2023-02-14T00:40:24.895Z,22.40
2023-02-14T00:42:52.606Z,23.60
2023-02-14T00:45:20.466Z,26.98
2023-02-14T00:47:48.145Z,25.05
2023-02-14T00:50:17.559Z,22.83
2023-02-14T00:52:45.265Z,24.45
2023-02-14T00:55:13.009Z,24.17
2023-02-14T00:57:40.740Z,23.08
2023-02-14T01:00:09.952Z,23.88
2023-02-14T01:02:37.694Z,26.02
2023-02-14T01:05:06.036Z,28.83
2023-02-14T01:07:35.126Z,30.13
2023-02-14T01:10:02.855Z,25.25
2023-02-14T01:12:30.576Z,25.23
2023-02-14T01:14:58.751Z,26.48
2023-02-14T01:17:26.530Z,26.23
2023-02-14T01:19:54.660Z,25.02
2023-02-14T01:22:22.482Z,25.45
2023-02-14T01:24:51.681Z,24.27
2023-02-14T01:27:19.638Z,25.50
2023-02-14T01:29:47.403Z,26.38
2023-02-14T01:32:15.391Z,24.70
2023-02-14T01:34:43.074Z,26.08
2023-02-14T01:37:10.842Z,29.75
2023-02-14T01:39:38.535Z,27.95
2023-02-14T01:42:07.861Z,25.67
2023-02-14T01:45:01.854Z,29.90
2023-02-14T01:47:32.005Z,25.92
2023-02-14T01:50:04.064Z,29.58
2023-02-14T01:52:36.759Z,31.23
2023-02-14T01:55:09.074Z,30.08
2023-02-14T01:57:41.400Z,30.55
2023-02-14T02:00:28.669Z,28.63
2023-02-14T02:02:57.067Z,33.03
2023-02-14T02:05:25.221Z,30.33
2023-02-14T02:07:53.894Z,27.25
2023-02-14T02:10:22.108Z,31.75
2023-02-14T02:12:52.207Z,26.92
2023-02-14T02:15:20.834Z,31.63
2023-02-14T02:18:00.480Z,30.02
2023-02-14T02:21:09.495Z,30.50
2023-02-14T02:24:18.438Z,28.60
2023-02-14T02:27:12.652Z,28.45
2023-02-14T02:30:18.803Z,26.85
2023-02-14T02:33:31.354Z,27.15
2023-02-14T02:36:38.002Z,25.48
2023-02-14T02:39:16.642Z,28.02
2023-02-14T02:41:56.308Z,32.40
2023-02-14T02:44:35.270Z,28.13
2023-02-14T02:47:08.651Z,26.60
2023-02-14T02:50:04.442Z,27.13
2023-02-14T02:52:59.913Z,31.58
2023-02-14T02:55:55.857Z,30.80
2023-02-14T02:58:26.143Z,31.17
2023-02-14T03:00:56.170Z,32.28
2023-02-14T03:03:43.917Z,29.58
2023-02-14T03:06:11.640Z,29.67
2023-02-14T03:08:40.718Z,32.10
2023-02-14T03:11:08.448Z,31.58
2023-02-14T03:13:54.744Z,31.60
2023-02-14T03:16:34.648Z,33.53
2023-02-14T03:19:48.002Z,30.25
2023-02-14T03:22:28.377Z,29.90
2023-02-14T03:25:08.046Z,30.92
2023-02-14T03:27:42.406Z,33.92
2023-02-14T03:30:19.042Z,33.22
2023-02-14T03:32:50.665Z,32.63
2023-02-14T03:35:26.730Z,30.80
2023-02-14T03:38:00.167Z,30.58
2023-02-14T03:40:37.395Z,33.72
2023-02-14T03:43:09.638Z,32.53
2023-02-14T03:45:42.724Z,33.78
2023-02-14T03:48:14.267Z,32.40
2023-02-14T03:50:45.281Z,29.40
2023-02-14T03:53:16.102Z,35.15
2023-02-14T03:55:52.566Z,35.60
2023-02-14T03:58:25.522Z,35.20
2023-02-14T04:03:26.127Z,34.25
2023-02-14T04:05:54.403Z,35.97
2023-02-14T04:08:22.926Z,35.78
2023-02-14T04:10:53.765Z,37.58
2023-02-14T04:13:21.550Z,40.05
2023-02-14T04:15:49.460Z,37.15
2023-02-14T04:18:34.832Z,33.72
2023-02-14T04:21:02.741Z,36.17
2023-02-14T04:23:30.647Z,40.78
2023-02-14T04:25:59.874Z,42.70
2023-02-14T04:28:27.605Z,51.15
2023-02-14T04:30:55.460Z,45.95
2023-02-14T04:33:23.217Z,56.72
2023-02-14T04:35:50.898Z,45.10
2023-02-14T04:38:18.725Z,49.13
2023-02-14T04:40:46.643Z,48.65
2023-02-14T04:43:15.683Z,57.15
2023-02-14T04:45:43.391Z,47.75
2023-02-14T04:48:11.124Z,54.70
2023-02-14T04:50:38.920Z,48.03
2023-02-14T04:53:06.621Z,52.78
2023-02-14T04:55:34.314Z,48.45
2023-02-14T04:58:02.073Z,52.58
2023-02-14T05:00:31.184Z,41.80
2023-02-14T05:02:58.895Z,45.65
2023-02-14T05:05:26.716Z,51.28
2023-02-14T05:07:54.498Z,46.88
2023-02-14T05:10:22.222Z,47.53
2023-02-14T05:12:49.935Z,47.47
2023-02-14T05:15:17.860Z,43.08
2023-02-14T05:17:46.901Z,52.42
2023-02-14T05:20:14.813Z,55.28
2023-02-14T05:22:42.607Z,51.42
2023-02-14T05:25:10.335Z,54.17
2023-02-14T05:27:38.010Z,48.55
2023-02-14T05:30:07.100Z,51.35
2023-02-14T05:32:34.884Z,46.90
2023-02-14T05:35:03.989Z,46.83
2023-02-14T05:37:32.069Z,50.92
2023-02-14T05:39:59.822Z,45.40
2023-02-14T05:42:27.761Z,48.63
2023-02-14T05:44:55.516Z,51.33
2023-02-14T05:47:23.280Z,44.92
2023-02-14T05:49:50.987Z,50.85
2023-02-14T05:52:20.058Z,50.65
2023-02-14T05:54:47.832Z,49.42
2023-02-14T05:57:15.638Z,50.17
2023-02-14T05:59:43.620Z,58.60
2023-02-14T06:02:11.907Z,52.70
2023-02-14T06:04:39.688Z,55.08
2023-02-14T06:07:07.503Z,54.28
2023-02-14T06:09:36.704Z,47.05
2023-02-14T06:12:06.545Z,52.60
2023-02-14T06:14:34.325Z,54.67
2023-02-14T06:17:02.168Z,53.83
2023-02-14T06:19:29.907Z,53.15
2023-02-14T06:21:57.740Z,52.88
2023-02-14T06:24:25.412Z,49.13
2023-02-14T06:26:54.526Z,50.08
2023-02-14T06:29:22.887Z,49.35
2023-02-14T06:31:50.711Z,52.80
2023-02-14T06:34:18.504Z,54.00
2023-02-14T06:36:46.586Z,47.03
2023-02-14T06:39:14.365Z,49.30
2023-02-14T06:41:42.099Z,49.55
2023-02-14T06:44:11.249Z,47.65
2023-02-14T06:46:39.050Z,46.58
2023-02-14T06:49:06.850Z,50.67
2023-02-14T06:51:34.620Z,49.13
2023-02-14T06:54:02.379Z,53.75
2023-02-14T06:56:30.328Z,51.13
2023-02-14T06:58:58.013Z,46.17
2023-02-14T07:01:27.162Z,47.92
2023-02-14T07:03:54.898Z,50.35
2023-02-14T07:06:22.696Z,54.15
2023-02-14T07:08:50.408Z,47.83
2023-02-14T07:11:19.429Z,46.90
2023-02-14T07:13:49.351Z,48.85
2023-02-14T07:16:17.312Z,52.13
2023-02-14T07:18:46.504Z,50.05
2023-02-14T07:21:14.239Z,46.03
2023-02-14T07:23:42.016Z,46.20
2023-02-14T07:26:09.731Z,47.55
2023-02-14T07:28:37.460Z,50.90
2023-02-14T07:31:05.549Z,47.13
2023-02-14T07:33:33.432Z,49.45
2023-02-14T07:36:05.614Z,48.22
2023-02-14T07:38:33.399Z,49.50
2023-02-14T07:41:01.407Z,58.05
2023-02-14T07:43:29.565Z,51.05
2023-02-14T07:45:57.595Z,47.28
2023-02-14T07:48:25.876Z,49.03
2023-02-14T07:50:56.523Z,48.45
2023-02-14T07:53:26.288Z,50.63
2023-02-14T07:55:54.203Z,49.88
2023-02-14T07:58:22.148Z,49.95
2023-02-14T08:00:51.149Z,47.60
2023-02-14T08:03:18.989Z,48.40
2023-02-14T08:05:56.949Z,41.22
2023-02-14T08:08:28.162Z,43.78
2023-02-14T08:10:56.177Z,41.88
2023-02-14T08:13:23.195Z,40.85
2023-02-14T08:16:06.828Z,38.78
2023-02-14T08:18:36.972Z,41.70
2023-02-14T08:21:05.970Z,45.05
2023-02-14T08:23:35.873Z,43.13
2023-02-14T08:26:03.695Z,43.60
2023-02-14T08:28:32.980Z,42.70
2023-02-14T08:31:01.330Z,41.97
2023-02-14T08:33:29.640Z,40.45
2023-02-14T08:35:57.482Z,38.20
2023-02-14T08:38:25.454Z,38.35
2023-02-14T08:40:54.815Z,44.00
2023-02-14T08:43:22.607Z,40.05
2023-02-14T08:45:53.528Z,41.42
2023-02-14T08:48:23.630Z,40.50
2023-02-14T08:50:51.400Z,41.67
2023-02-14T08:53:19.407Z,43.72
2023-02-14T08:55:47.878Z,40.95
2023-02-14T08:58:16.960Z,42.08
2023-02-14T09:00:44.888Z,41.88
2023-02-14T09:03:13.856Z,46.08
2023-02-14T09:05:41.644Z,40.72
2023-02-14T09:08:09.497Z,37.72
2023-02-14T09:10:37.864Z,41.65
2023-02-14T09:13:05.826Z,40.40
2023-02-14T09:15:35.084Z,38.55
2023-02-14T09:18:02.861Z,40.72
2023-02-14T09:20:30.724Z,40.90
2023-02-14T09:22:58.532Z,39.88
2023-02-14T09:25:26.260Z,42.53
2023-02-14T09:27:53.983Z,39.45
2023-02-14T09:30:21.807Z,38.20
2023-02-14T09:32:52.618Z,41.95
2023-02-14T09:35:37.890Z,44.92
2023-02-14T09:38:05.747Z,38.55
2023-02-14T09:40:34.322Z,37.97
2023-02-14T09:43:10.165Z,39.92
2023-02-14T09:45:39.188Z,38.72
2023-02-14T09:48:15.811Z,41.03
2023-02-14T09:50:48.776Z,41.40
2023-02-14T09:58:28.000Z,38.97
2023-02-14T10:01:01.017Z,41.60
2023-02-14T10:03:58.771Z,39.40
2023-02-14T10:06:46.609Z,43.38
2023-02-14T10:09:28.546Z,40.95
2023-02-14T10:12:00.955Z,44.95
2023-02-14T10:14:33.903Z,49.88
2023-02-14T10:19:39.765Z,40.50
2023-02-14T10:22:13.274Z,41.05
2023-02-14T10:24:46.244Z,42.95
2023-02-14T10:32:19.762Z,39.55
2023-02-14T10:34:50.981Z,43.55
2023-02-14T10:37:28.858Z,43.53
2023-02-14T10:40:26.753Z,39.55
2023-02-14T10:43:02.380Z,49.92
2023-02-14T10:45:40.217Z,47.10
2023-02-14T10:48:19.760Z,47.67
2023-02-14T10:50:57.578Z,42.65
2023-02-14T10:53:34.199Z,40.33
2023-02-14T10:56:06.859Z,43.38
2023-02-14T10:58:38.992Z,39.67
2023-02-14T11:01:09.827Z,42.92
2023-02-14T11:03:42.754Z,43.97
2023-02-14T11:06:12.873Z,41.33
2023-02-14T11:08:42.175Z,46.10
2023-02-14T11:11:18.165Z,46.53
2023-02-14T11:13:46.616Z,44.78
2023-02-14T11:16:20.857Z,42.60
2023-02-14T11:18:48.622Z,44.42
2023-02-14T11:21:21.079Z,41.63
2023-02-14T11:23:51.139Z,46.83
2023-02-14T11:26:24.018Z,44.67
2023-02-14T11:31:31.161Z,41.50
2023-02-14T11:34:00.185Z,42.90
2023-02-14T11:36:31.191Z,44.10
2023-02-14T11:39:06.341Z,48.22
2023-02-14T11:41:51.054Z,46.63
2023-02-14T11:44:23.197Z,45.20
2023-02-14T11:46:53.450Z,45.60
2023-02-14T11:49:39.522Z,43.50
2023-02-14T11:52:17.299Z,44.42
2023-02-14T11:54:49.559Z,39.15
2023-02-14T11:57:22.885Z,40.70
2023-02-14T11:59:53.506Z,43.55
2023-02-14T12:02:37.665Z,43.47
2023-02-14T12:05:08.229Z,43.47
2023-02-14T12:07:39.015Z,48.42
2023-02-14T12:10:28.794Z,46.25
2023-02-14T12:13:00.307Z,46.38
2023-02-14T12:15:41.282Z,45.05
2023-02-14T12:18:31.277Z,48.53
2023-02-14T12:21:06.088Z,45.30
2023-02-14T12:23:42.053Z,48.55
2023-02-14T12:26:18.766Z,44.65
2023-02-14T12:28:52.636Z,44.35
2023-02-14T12:31:20.969Z,45.58
2023-02-14T12:33:50.520Z,49.25
2023-02-14T12:36:34.882Z,45.75
2023-02-14T12:39:10.484Z,44.53
2023-02-14T12:41:48.086Z,46.30
2023-02-14T12:44:24.756Z,45.35
2023-02-14T12:47:06.628Z,46.80
2023-02-14T12:50:09.780Z,43.95
2023-02-14T12:53:07.471Z,43.35
2023-02-14T12:55:50.514Z,52.17
2023-02-14T12:58:30.405Z,50.97
2023-02-14T13:01:09.487Z,50.65
2023-02-14T13:03:59.364Z,54.15
2023-02-14T13:06:31.550Z,57.72
2023-02-14T13:09:15.484Z,59.35
2023-02-14T13:11:55.875Z,58.22
2023-02-14T13:14:39.882Z,52.22
2023-02-14T13:17:15.983Z,61.92
2023-02-14T13:19:54.604Z,56.72
2023-02-14T13:22:25.735Z,64.00
2023-02-14T13:24:58.654Z,61.38
2023-02-14T13:30:02.201Z,57.75
2023-02-14T13:32:34.052Z,64.43
2023-02-14T13:35:02.636Z,58.83
2023-02-14T13:37:31.711Z,63.03
2023-02-14T13:40:03.913Z,64.30
2023-02-14T13:42:56.269Z,58.28
2023-02-14T13:46:03.679Z,64.38
2023-02-14T13:48:31.883Z,67.75
2023-02-14T13:51:02.101Z,70.07
2023-02-14T13:53:42.176Z,57.22
2023-02-14T13:56:35.106Z,66.15
2023-02-14T13:59:06.272Z,65.95
2023-02-14T14:01:39.049Z,68.50
2023-02-14T14:04:28.815Z,61.25
2023-02-14T14:07:21.020Z,61.90
2023-02-14T14:09:57.202Z,64.57
2023-02-14T14:12:46.347Z,62.20
2023-02-14T14:15:20.863Z,67.65
2023-02-14T14:18:11.892Z,69.10
2023-02-14T14:20:44.792Z,70.18
2023-02-14T14:25:55.872Z,64.18
2023-02-14T14:28:26.499Z,66.25
2023-02-14T14:30:56.009Z,68.70
2023-02-14T14:33:29.509Z,71.20
2023-02-14T14:36:00.085Z,63.53
2023-02-14T14:38:28.690Z,67.32
2023-02-14T14:40:57.619Z,72.93
2023-02-14T14:43:31.391Z,69.53
2023-02-14T14:46:02.890Z,72.55
2023-02-14T14:48:33.509Z,72.00
2023-02-14T14:51:01.734Z,74.45
2023-02-14T14:53:33.316Z,68.05
2023-02-14T14:56:01.437Z,70.80
2023-02-14T14:58:36.449Z,73.47
2023-02-14T15:01:06.838Z,80.18
2023-02-14T15:03:35.322Z,85.65
2023-02-14T15:06:09.503Z,88.85
2023-02-14T15:08:37.835Z,79.57
2023-02-14T15:11:09.661Z,139.13
2023-02-14T15:13:50.979Z,96.25
2023-02-14T15:16:23.222Z,86.05
2023-02-14T15:18:54.616Z,77.95
2023-02-14T15:21:22.564Z,91.20
2023-02-14T15:23:50.389Z,81.47
2023-02-14T15:26:19.963Z,85.05
2023-02-14T15:28:56.280Z,93.57
2023-02-14T15:31:29.960Z,75.40
2023-02-14T15:34:00.068Z,83.43
2023-02-14T15:36:28.499Z,98.50
2023-02-14T15:38:58.391Z,87.95
2023-02-14T15:41:27.850Z,83.57
2023-02-14T15:43:57.917Z,74.88
2023-02-14T15:46:35.509Z,88.82
2023-02-14T15:49:09.835Z,80.53
2023-02-14T15:51:38.955Z,81.97
2023-02-14T15:54:08.787Z,73.18
2023-02-14T15:56:42.969Z,83.13
2023-02-14T15:59:17.603Z,87.15
2023-02-14T16:01:53.414Z,79.28
2023-02-14T16:04:25.842Z,72.40
2023-02-14T16:07:23.156Z,84.35
2023-02-14T16:09:52.324Z,85.18
2023-02-14T16:12:31.674Z,86.63
2023-02-14T16:15:11.795Z,81.50
2023-02-14T16:17:42.076Z,78.97
2023-02-14T16:20:38.764Z,77.88
2023-02-14T16:23:25.005Z,79.00
2023-02-14T16:25:53.242Z,76.47
2023-02-14T16:28:21.702Z,71.72
2023-02-14T16:30:55.557Z,87.78
2023-02-14T16:33:27.021Z,94.20
2023-02-14T16:35:55.780Z,97.70
2023-02-14T16:38:23.755Z,141.85
2023-02-14T16:40:54.316Z,94.95
2023-02-14T16:43:22.549Z,118.60
2023-02-14T16:45:50.469Z,82.80
2023-02-14T16:48:18.237Z,118.93
2023-02-14T16:50:47.787Z,121.55
2023-02-14T16:53:25.419Z,132.38
2023-02-14T16:55:54.997Z,102.40
2023-02-14T16:58:26.912Z,274.75
2023-02-14T17:00:54.652Z,215.30
2023-02-14T17:03:22.559Z,145.10
2023-02-14T17:05:52.017Z,352.25
2023-02-14T17:08:19.961Z,357.13
2023-02-14T17:10:49.181Z,260.38
2023-02-14T17:13:20.347Z,358.30
2023-02-14T17:15:48.544Z,145.70
2023-02-14T17:18:18.487Z,135.23
2023-02-14T17:20:46.546Z,101.60
2023-02-14T17:23:16.276Z,101.93
2023-02-14T17:25:43.983Z,112.82
2023-02-14T17:28:11.929Z,112.32
2023-02-14T17:30:40.318Z,105.07
2023-02-14T17:33:08.288Z,101.97
2023-02-14T17:35:36.602Z,97.13
2023-02-14T17:38:04.505Z,96.40
2023-02-14T17:40:33.661Z,103.43
2023-02-14T17:43:02.006Z,109.50
2023-02-14T17:45:29.884Z,106.47
2023-02-14T17:47:57.689Z,107.05
2023-02-14T17:50:25.570Z,98.22
2023-02-14T17:52:55.197Z,100.18
2023-02-14T17:55:23.530Z,106.30
2023-02-14T17:57:52.825Z,102.95
2023-02-14T18:00:22.305Z,98.95
2023-02-14T18:02:50.242Z,112.53
2023-02-14T18:05:18.160Z,105.47
2023-02-14T18:07:45.848Z,109.45
2023-02-14T18:10:13.551Z,116.35
2023-02-14T18:12:42.206Z,102.47
2023-02-14T18:15:11.522Z,114.22
2023-02-14T18:17:39.311Z,108.20
2023-02-14T18:20:08.287Z,108.57
2023-02-14T18:22:36.803Z,114.70
2023-02-14T18:25:04.860Z,106.68
2023-02-14T18:27:32.904Z,113.03
2023-02-14T18:30:00.795Z,115.65
2023-02-14T18:32:29.973Z,111.65
2023-02-14T18:34:57.924Z,120.78
2023-02-14T18:37:25.862Z,121.45
2023-02-14T18:39:53.747Z,133.10
2023-02-14T18:42:21.707Z,130.02
2023-02-14T18:44:49.483Z,127.35
2023-02-14T18:47:17.263Z,129.77
2023-02-14T18:49:46.370Z,148.25
2023-02-14T18:52:14.133Z,137.45
2023-02-14T18:54:42.002Z,120.30
2023-02-14T18:57:09.724Z,241.50
2023-02-14T18:59:37.547Z,422.40
2023-02-14T19:02:05.260Z,242.63
2023-02-14T19:04:33.073Z,135.43
2023-02-14T19:07:04.444Z,120.40
2023-02-14T19:09:38.850Z,130.13
2023-02-14T19:12:07.182Z,123.03
2023-02-14T19:14:34.983Z,123.57
2023-02-14T19:17:03.009Z,113.07
2023-02-14T19:19:30.945Z,111.20
2023-02-14T19:21:59.792Z,118.93
2023-02-14T19:24:29.129Z,109.75
2023-02-14T19:26:57.716Z,111.95
2023-02-14T19:29:25.506Z,112.95
2023-02-14T19:31:54.734Z,120.93
2023-02-14T19:34:26.141Z,115.38
2023-02-14T19:36:56.275Z,122.00
2023-02-14T19:39:24.551Z,117.22
2023-02-14T19:41:53.728Z,116.63
2023-02-14T19:44:25.099Z,119.75
2023-02-14T19:46:54.354Z,109.47
2023-02-14T19:49:22.371Z,122.15
2023-02-14T19:51:52.213Z,121.63
2023-02-14T19:54:21.900Z,124.90
2023-02-14T19:56:49.723Z,124.68
2023-02-14T19:59:22.592Z,117.18
2023-02-14T20:04:21.487Z,111.10
2023-02-14T20:06:49.909Z,117.07
2023-02-14T20:09:19.091Z,125.35
2023-02-14T20:11:50.112Z,118.97
2023-02-14T20:14:21.462Z,124.20
2023-02-14T20:16:50.313Z,114.93
2023-02-14T20:19:20.114Z,112.05
2023-02-14T20:21:49.560Z,118.78
2023-02-14T20:24:20.189Z,116.95
2023-02-14T20:26:49.029Z,112.90
2023-02-14T20:29:17.578Z,113.40
2023-02-14T20:31:48.452Z,113.75
2023-02-14T20:34:16.534Z,114.90
2023-02-14T20:36:45.797Z,103.95
2023-02-14T20:39:14.232Z,109.95
2023-02-14T20:41:43.679Z,110.47
2023-02-14T20:44:15.489Z,109.22
2023-02-14T20:46:43.824Z,105.10
2023-02-14T20:49:13.696Z,107.18
2023-02-14T20:51:41.665Z,106.30
2023-02-14T20:54:09.365Z,96.60
2023-02-14T20:56:37.244Z,98.50
2023-02-14T20:59:04.890Z,97.38
2023-02-14T21:01:32.785Z,93.43
2023-02-14T21:04:00.578Z,100.15
2023-02-14T21:06:33.211Z,95.60
2023-02-14T21:09:01.648Z,102.90
2023-02-14T21:11:29.418Z,92.80
2023-02-14T21:13:59.740Z,97.07
2023-02-14T21:16:29.297Z,97.20
2023-02-14T21:18:59.424Z,89.63
2023-02-14T21:21:32.692Z,96.80
2023-02-14T21:24:01.782Z,102.05
2023-02-14T21:26:29.931Z,105.13
2023-02-14T21:28:57.986Z,99.80
2023-02-14T21:31:26.052Z,93.45
2023-02-14T21:33:55.270Z,89.57
2023-02-14T21:36:25.077Z,90.20
2023-02-14T21:38:56.953Z,89.93
2023-02-14T21:41:26.888Z,85.22
2023-02-14T21:43:56.389Z,83.97
2023-02-14T21:46:27.416Z,88.60
2023-02-14T21:49:13.691Z,93.95
2023-02-14T21:51:42.147Z,91.00
2023-02-14T21:54:11.717Z,97.85
2023-02-14T21:56:41.276Z,87.97
2023-02-14T21:59:09.606Z,86.78
2023-02-14T22:01:41.117Z,94.65
2023-02-14T22:04:11.450Z,84.88
2023-02-14T22:06:41.576Z,105.30
2023-02-14T22:09:12.903Z,98.13
2023-02-14T22:11:40.662Z,109.15
2023-02-14T22:14:08.462Z,99.78
2023-02-14T22:16:36.881Z,89.53
2023-02-14T22:19:05.200Z,94.40
2023-02-14T22:21:33.629Z,104.43
2023-02-14T22:24:02.172Z,110.72
2023-02-14T22:26:33.767Z,104.82
2023-02-14T22:29:03.770Z,104.65
2023-02-14T22:31:35.050Z,97.32
2023-02-14T22:34:02.896Z,95.00
2023-02-14T22:36:30.639Z,92.00
2023-02-14T22:38:58.391Z,117.53
2023-02-14T22:41:26.907Z,107.47
2023-02-14T22:43:58.459Z,97.25
2023-02-14T22:46:28.175Z,126.15
2023-02-14T22:48:57.623Z,98.25
2023-02-14T22:51:27.185Z,115.35
2023-02-14T22:53:57.218Z,107.35
2023-02-14T22:56:26.477Z,109.05
2023-02-14T22:58:56.754Z,83.78
2023-02-14T23:01:25.337Z,94.03
2023-02-14T23:03:54.749Z,90.65
2023-02-14T23:06:22.887Z,87.03
2023-02-14T23:08:50.615Z,88.38
2023-02-14T23:11:20.548Z,86.57
2023-02-14T23:14:05.767Z,86.13
2023-02-14T23:16:52.199Z,85.57
2023-02-14T23:19:41.455Z,75.93
2023-02-14T23:22:11.670Z,78.18
2023-02-14T23:24:39.842Z,77.68
2023-02-14T23:27:08.291Z,81.22
2023-02-14T23:29:37.188Z,89.65
2023-02-14T23:32:07.691Z,78.57
2023-02-14T23:34:37.574Z,67.93
2023-02-14T23:37:06.149Z,81.72
2023-02-14T23:39:35.838Z,81.53
2023-02-14T23:42:03.979Z,78.72
2023-02-14T23:44:32.707Z,76.25
2023-02-14T23:47:03.083Z,74.82
2023-02-14T23:49:33.908Z,85.82
2023-02-14T23:52:02.224Z,88.70
2023-02-14T23:54:30.478Z,79.18
2023-02-14T23:57:01.266Z,72.72
2023-02-14T23:59:29.129Z,81.22
